createdAt,value
2023-02-13T00:00:39.215Z,99709.72
2023-02-13T00:03:06.319Z,99706.34
2023-02-13T00:05:33.082Z,99708.13
2023-02-13T00:07:59.775Z,99701.47
2023-02-13T00:10:26.656Z,99697.31
2023-02-13T00:12:53.498Z,99711.06
2023-02-13T00:15:20.388Z,99699.19
2023-02-13T00:17:47.103Z,99707.84
2023-02-13T00:20:14.089Z,99709.69
2023-02-13T00:22:40.838Z,99708.03
2023-02-13T00:25:08.876Z,99699.56
2023-02-13T00:27:35.866Z,99707.38
2023-02-13T00:30:05.210Z,99699.78
2023-02-13T00:32:32.061Z,99704.13
2023-02-13T00:34:58.811Z,99704.19
2023-02-13T00:37:26.118Z,99695.69
2023-02-13T00:39:53.463Z,99697.47
2023-02-13T00:42:23.925Z,99687.25
2023-02-13T00:44:50.723Z,99697.66
2023-02-13T00:47:17.609Z,99692.72
2023-02-13T00:49:44.299Z,99703.00
2023-02-13T00:52:11.006Z,99696.22
2023-02-13T00:54:37.704Z,99697.94
2023-02-13T00:57:04.603Z,99697.13
2023-02-13T00:59:31.419Z,99698.91
2023-02-13T01:01:58.160Z,99694.63
2023-02-13T01:04:24.908Z,99703.25
2023-02-13T01:06:51.667Z,99697.34
2023-02-13T01:09:18.370Z,99699.09
2023-02-13T01:11:45.093Z,99706.78
2023-02-13T01:14:11.832Z,99701.72
2023-02-13T01:16:38.856Z,99699.16
2023-02-13T01:19:05.608Z,99701.75
2023-02-13T01:21:32.499Z,99698.41
2023-02-13T01:24:05.000Z,99696.75
2023-02-13T01:26:31.912Z,99704.53
2023-02-13T01:28:58.720Z,99693.44
2023-02-13T01:31:26.489Z,99702.84
2023-02-13T01:33:56.999Z,99699.47
2023-02-13T01:36:25.278Z,99703.81
2023-02-13T01:38:58.760Z,99705.63
2023-02-13T01:41:27.880Z,99703.13
2023-02-13T01:44:00.238Z,99703.19
2023-02-13T01:46:43.921Z,99698.97
2023-02-13T01:49:20.590Z,99702.44
2023-02-13T01:51:54.473Z,99701.66
2023-02-13T01:54:31.081Z,99698.25
2023-02-13T01:57:08.726Z,99697.44
2023-02-13T01:59:48.228Z,99698.31
2023-02-13T02:02:15.823Z,99697.50
2023-02-13T02:04:45.460Z,99701.72
2023-02-13T02:07:20.205Z,99692.34
2023-02-13T02:09:47.946Z,99690.66
2023-02-13T02:12:31.558Z,99692.41
2023-02-13T02:15:01.258Z,99689.84
2023-02-13T02:17:28.206Z,99691.56
2023-02-13T02:20:18.677Z,99689.03
2023-02-13T02:23:13.171Z,99689.09
2023-02-13T02:26:12.193Z,99684.88
2023-02-13T02:29:24.582Z,99684.91
2023-02-13T02:32:10.843Z,99688.38
2023-02-13T02:34:49.535Z,99687.53
2023-02-13T02:37:31.829Z,99687.53
2023-02-13T02:40:48.035Z,99683.25
2023-02-13T02:43:36.404Z,99680.72
2023-02-13T02:46:22.704Z,99696.16
2023-02-13T02:49:20.415Z,99694.44
2023-02-13T02:52:12.712Z,99686.78
2023-02-13T02:55:09.062Z,99691.06
2023-02-13T02:58:08.316Z,99684.31
2023-02-13T03:01:01.509Z,99684.31
2023-02-13T03:03:49.631Z,99686.91
2023-02-13T03:06:46.124Z,99685.22
2023-02-13T03:09:39.764Z,99689.53
2023-02-13T03:12:27.293Z,99683.56
2023-02-13T03:14:57.123Z,99686.16
2023-02-13T03:17:42.868Z,99691.31
2023-02-13T03:20:37.784Z,99684.53
2023-02-13T03:23:39.398Z,99688.75
2023-02-13T03:26:46.023Z,99691.31
2023-02-13T03:30:04.287Z,99676.84
2023-02-13T03:33:04.631Z,99694.81
2023-02-13T03:36:05.679Z,99687.16
2023-02-13T03:39:11.674Z,99689.72
2023-02-13T03:42:02.679Z,99692.31
2023-02-13T03:44:37.742Z,99700.00
2023-02-13T03:47:08.755Z,99700.00
2023-02-13T03:50:01.865Z,99706.00
2023-02-13T03:53:06.239Z,99699.19
2023-02-13T03:56:05.075Z,99700.91
2023-02-13T03:58:59.195Z,99699.22
2023-02-13T04:01:32.548Z,99711.13
2023-02-13T04:04:19.112Z,99711.13
2023-02-13T04:07:03.609Z,99716.22
2023-02-13T04:09:35.633Z,99716.22
2023-02-13T04:12:18.769Z,99717.06
2023-02-13T04:15:41.594Z,99718.81
2023-02-13T04:18:15.546Z,99719.66
2023-02-13T04:20:42.446Z,99725.63
2023-02-13T04:23:11.902Z,99723.94
2023-02-13T04:25:43.426Z,99719.66
2023-02-13T04:28:10.229Z,99715.41
2023-02-13T04:30:37.304Z,99713.69
2023-02-13T04:33:04.265Z,99719.66
2023-02-13T04:35:31.153Z,99715.41
2023-02-13T04:37:57.862Z,99711.13
2023-02-13T04:40:24.842Z,99712.00
2023-02-13T04:42:51.549Z,99709.41
2023-02-13T04:45:18.573Z,99703.44
2023-02-13T04:47:54.803Z,99700.91
2023-02-13T04:50:23.440Z,99705.19
2023-02-13T04:52:57.718Z,99710.28
2023-02-13T04:55:27.530Z,99711.16
2023-02-13T04:57:55.766Z,99704.34
2023-02-13T05:00:25.434Z,99709.47
2023-02-13T05:02:52.558Z,99706.91
2023-02-13T05:05:20.583Z,99712.00
2023-02-13T05:07:47.368Z,99712.84
2023-02-13T05:10:14.110Z,99721.38
2023-02-13T05:12:40.824Z,99713.72
2023-02-13T05:15:08.423Z,99717.13
2023-02-13T05:17:35.156Z,99714.63
2023-02-13T05:20:01.940Z,99714.66
2023-02-13T05:22:46.949Z,99717.22
2023-02-13T05:25:13.697Z,99712.09
2023-02-13T05:27:40.417Z,99717.19
2023-02-13T05:30:08.165Z,99712.09
2023-02-13T05:32:34.881Z,99725.75
2023-02-13T05:35:04.057Z,99733.44
2023-02-13T05:37:31.887Z,99729.22
2023-02-13T05:39:58.598Z,99736.00
2023-02-13T05:42:25.390Z,99737.72
2023-02-13T05:44:52.111Z,99730.91
2023-02-13T05:47:18.881Z,99731.78
2023-02-13T05:49:45.758Z,99739.47
2023-02-13T05:52:12.452Z,99739.47
2023-02-13T05:54:39.420Z,99744.59
2023-02-13T05:57:06.240Z,99745.44
2023-02-13T05:59:33.088Z,99745.44
2023-02-13T06:01:59.809Z,99742.06
2023-02-13T06:04:26.678Z,99738.66
2023-02-13T06:06:53.407Z,99747.19
2023-02-13T06:09:20.118Z,99742.06
2023-02-13T06:11:46.929Z,99750.63
2023-02-13T06:14:14.517Z,99753.19
2023-02-13T06:16:41.514Z,99754.84
2023-02-13T06:19:08.582Z,99754.03
2023-02-13T06:21:37.845Z,99769.34
2023-02-13T06:24:05.990Z,99762.53
2023-02-13T06:26:32.943Z,99760.00
2023-02-13T06:28:59.716Z,99762.53
2023-02-13T06:31:27.230Z,99759.13
2023-02-13T06:33:54.104Z,99769.34
2023-02-13T06:36:20.863Z,99768.50
2023-02-13T06:38:47.607Z,99764.25
2023-02-13T06:41:14.351Z,99771.91
2023-02-13T06:43:41.102Z,99778.72
2023-02-13T06:46:09.274Z,99772.78
2023-02-13T06:48:36.395Z,99783.81
2023-02-13T06:51:03.346Z,99779.56
2023-02-13T06:53:30.810Z,99780.41
2023-02-13T06:55:57.618Z,99788.94
2023-02-13T06:58:26.413Z,99789.78
2023-02-13T07:00:53.515Z,99795.72
2023-02-13T07:03:20.500Z,99794.00
2023-02-13T07:05:47.468Z,99796.56
2023-02-13T07:08:14.254Z,99792.31
2023-02-13T07:10:42.036Z,99789.72
2023-02-13T07:13:09.814Z,99787.19
2023-02-13T07:15:37.851Z,99800.78
2023-02-13T07:18:05.943Z,99792.25
2023-02-13T07:20:33.493Z,99793.94
2023-02-13T07:23:03.295Z,99799.00
2023-02-13T07:25:30.991Z,99802.41
2023-02-13T07:28:06.023Z,99788.69
2023-02-13T07:30:34.638Z,99783.56
2023-02-13T07:33:05.113Z,99790.34
2023-02-13T07:35:32.836Z,99794.59
2023-02-13T07:38:00.563Z,99800.56
2023-02-13T07:40:27.596Z,99792.91
2023-02-13T07:42:54.860Z,99809.91
2023-02-13T07:45:21.596Z,99804.72
2023-02-13T07:47:48.306Z,99804.66
2023-02-13T07:50:15.054Z,99800.31
2023-02-13T07:52:41.789Z,99813.88
2023-02-13T07:55:11.387Z,99807.88
2023-02-13T07:57:38.165Z,99801.81
2023-02-13T08:00:06.116Z,99811.16
2023-02-13T08:02:32.854Z,99810.28
2023-02-13T08:04:59.572Z,99812.84
2023-02-13T08:07:26.650Z,99805.16
2023-02-13T08:10:12.021Z,99806.00
2023-02-13T08:12:38.851Z,99812.84
2023-02-13T08:15:06.534Z,99812.84
2023-02-13T08:17:33.284Z,99808.56
2023-02-13T08:20:00.072Z,99804.25
2023-02-13T08:22:26.792Z,99814.47
2023-02-13T08:24:54.134Z,99811.13
2023-02-13T08:27:21.001Z,99812.88
2023-02-13T08:29:50.993Z,99815.47
2023-02-13T08:32:18.226Z,99808.59
2023-02-13T08:34:45.026Z,99807.69
2023-02-13T08:37:11.717Z,99805.13
2023-02-13T08:39:38.433Z,99809.31
2023-02-13T08:42:05.193Z,99805.81
2023-02-13T08:44:31.954Z,99809.97
2023-02-13T08:46:58.835Z,99809.94
2023-02-13T08:49:25.690Z,99810.75
2023-02-13T08:51:52.461Z,99814.97
2023-02-13T08:54:19.227Z,99814.84
2023-02-13T08:56:46.137Z,99810.41
2023-02-13T08:59:12.945Z,99817.06
2023-02-13T09:01:39.969Z,99810.00
2023-02-13T09:04:06.743Z,99805.50
2023-02-13T09:06:33.537Z,99800.94
2023-02-13T09:09:00.239Z,99800.72
2023-02-13T09:11:26.949Z,99800.50
2023-02-13T09:13:55.568Z,99804.44
2023-02-13T09:16:23.085Z,99803.44
2023-02-13T09:18:51.076Z,99798.19
2023-02-13T09:21:20.405Z,99802.38
2023-02-13T09:23:47.165Z,99785.16
2023-02-13T09:26:16.121Z,99792.75
2023-02-13T09:28:43.976Z,99796.97
2023-02-13T09:31:18.787Z,99796.94
2023-02-13T09:33:48.238Z,99801.75
2023-02-13T09:36:21.265Z,99797.97
2023-02-13T09:38:52.244Z,99792.41
2023-02-13T09:41:27.669Z,99796.22
2023-02-13T09:44:11.029Z,99806.91
2023-02-13T09:46:41.130Z,99804.88
2023-02-13T09:49:22.428Z,99796.09
2023-02-13T09:51:56.304Z,99804.69
2023-02-13T09:54:23.044Z,99798.69
2023-02-13T09:57:04.990Z,99804.56
2023-02-13T09:59:57.082Z,99793.22
2023-02-13T10:02:55.989Z,99793.66
2023-02-13T10:05:40.623Z,99799.13
2023-02-13T10:08:58.609Z,99800.47
2023-02-13T10:11:52.048Z,99798.38
2023-02-13T10:14:35.483Z,99795.50
2023-02-13T10:17:36.784Z,99798.69
2023-02-13T10:20:19.697Z,99799.47
2023-02-13T10:23:02.936Z,99792.41
2023-02-13T10:25:49.390Z,99794.34
2023-02-13T10:28:44.588Z,99788.19
2023-02-13T10:31:23.272Z,99785.91
2023-02-13T10:33:56.027Z,99791.41
2023-02-13T10:36:28.783Z,99785.66
2023-02-13T10:39:07.383Z,99778.66
2023-02-13T10:41:41.945Z,99772.97
2023-02-13T10:44:41.914Z,99773.19
2023-02-13T10:47:44.871Z,99766.28
2023-02-13T10:50:29.359Z,99765.25
2023-02-13T10:53:49.990Z,99772.16
2023-02-13T10:56:45.787Z,99759.41
2023-02-13T10:59:38.223Z,99760.34
2023-02-13T11:02:26.560Z,99757.59
2023-02-13T11:05:02.125Z,99747.84
2023-02-13T11:07:30.426Z,99747.63
2023-02-13T11:10:05.559Z,99746.97
2023-02-13T11:12:34.346Z,99739.06
2023-02-13T11:15:05.918Z,99738.91
2023-02-13T11:17:40.641Z,99738.50
2023-02-13T11:20:40.371Z,99740.44
2023-02-13T11:23:30.751Z,99739.44
2023-02-13T11:26:12.275Z,99723.78
2023-02-13T11:28:55.316Z,99733.53
2023-02-13T11:31:32.955Z,99733.06
2023-02-13T11:34:24.451Z,99724.31
2023-02-13T11:37:13.128Z,99729.09
2023-02-13T11:39:41.741Z,99727.44
2023-02-13T11:42:36.082Z,99721.91
2023-02-13T11:45:27.817Z,99728.66
2023-02-13T11:47:56.221Z,99726.19
2023-02-13T11:50:34.801Z,99720.94
2023-02-13T11:53:18.704Z,99727.56
2023-02-13T11:56:02.423Z,99717.28
2023-02-13T11:58:33.265Z,99715.53
2023-02-13T12:01:26.182Z,99711.84
2023-02-13T12:04:17.336Z,99709.69
2023-02-13T12:07:12.097Z,99713.25
2023-02-13T12:09:41.894Z,99719.69
2023-02-13T12:12:30.209Z,99704.16
2023-02-13T12:14:58.288Z,99701.31
2023-02-13T12:17:32.154Z,99700.22
2023-02-13T12:20:00.403Z,99695.13
2023-02-13T12:22:36.456Z,99679.22
2023-02-13T12:25:43.156Z,99673.44
2023-02-13T12:28:22.482Z,99669.47
2023-02-13T12:31:09.138Z,99667.06
2023-02-13T12:34:17.554Z,99659.94
2023-02-13T12:37:01.897Z,99659.19
2023-02-13T12:39:40.300Z,99655.94
2023-02-13T12:42:44.874Z,99654.66
2023-02-13T12:45:18.310Z,99649.97
2023-02-13T12:48:03.650Z,99644.44
2023-02-13T12:51:01.031Z,99641.47
2023-02-13T12:54:11.699Z,99642.84
2023-02-13T12:57:06.419Z,99632.41
2023-02-13T13:00:08.756Z,99632.72
2023-02-13T13:03:25.564Z,99629.16
2023-02-13T13:06:21.375Z,99620.78
2023-02-13T13:09:18.766Z,99614.94
2023-02-13T13:12:18.718Z,99614.03
2023-02-13T13:14:57.432Z,99613.53
2023-02-13T13:17:44.239Z,99615.72
2023-02-13T13:20:14.172Z,99612.91
2023-02-13T13:23:00.795Z,99612.25
2023-02-13T13:25:59.218Z,99606.38
2023-02-13T13:28:42.449Z,99615.22
2023-02-13T13:31:11.758Z,99616.75
2023-02-13T13:33:46.322Z,99605.38
2023-02-13T13:36:54.377Z,99607.78
2023-02-13T13:39:58.499Z,99610.75
2023-02-13T13:43:12.743Z,99605.19
2023-02-13T13:46:06.772Z,99601.56
2023-02-13T13:48:56.109Z,99605.97
2023-02-13T13:51:23.339Z,99597.25
2023-02-13T13:54:05.089Z,99591.16
2023-02-13T13:56:53.328Z,99589.53
2023-02-13T13:59:51.637Z,99592.19
2023-02-13T14:02:18.389Z,99594.63
2023-02-13T14:05:23.160Z,99594.00
2023-02-13T14:07:55.472Z,99591.91
2023-02-13T14:10:22.610Z,99583.06
2023-02-13T14:13:02.336Z,99588.59
2023-02-13T14:15:37.594Z,99578.03
2023-02-13T14:18:27.099Z,99580.78
2023-02-13T14:21:01.070Z,99585.16
2023-02-13T14:23:38.510Z,99586.28
2023-02-13T14:26:16.833Z,99581.22
2023-02-13T14:28:49.590Z,99580.53
2023-02-13T14:31:31.134Z,99582.44
2023-02-13T14:34:01.963Z,99582.66
2023-02-13T14:36:35.536Z,99584.78
2023-02-13T14:39:20.769Z,99585.94
2023-02-13T14:41:55.993Z,99587.19
2023-02-13T14:44:52.613Z,99582.94
2023-02-13T14:47:42.704Z,99585.66
2023-02-13T14:50:21.789Z,99581.75
2023-02-13T14:52:50.083Z,99577.22
2023-02-13T14:55:42.765Z,99573.50
2023-02-13T14:58:23.542Z,99576.34
2023-02-13T15:01:13.640Z,99571.66
2023-02-13T15:03:40.290Z,99563.47
2023-02-13T15:06:34.425Z,99560.22
2023-02-13T15:09:15.168Z,99563.31
2023-02-13T15:11:44.268Z,61792.09
2023-02-13T15:14:29.894Z,61792.09
2023-02-13T15:17:13.680Z,61792.09
2023-02-13T15:19:48.636Z,99563.31
2023-02-13T15:22:28.965Z,99448.56
2023-02-13T15:24:55.830Z,99553.41
2023-02-13T15:27:32.148Z,99562.78
2023-02-13T15:30:20.756Z,99570.31
2023-02-13T15:33:02.088Z,99557.13
2023-02-13T15:35:34.391Z,99568.56
2023-02-13T15:38:39.222Z,99557.16
2023-02-13T15:41:32.112Z,99566.06
2023-02-13T15:44:00.251Z,99569.88
2023-02-13T15:46:35.750Z,99569.88
2023-02-13T15:49:15.800Z,99563.50
2023-02-13T15:51:43.588Z,99563.63
2023-02-13T15:54:28.467Z,99569.81
2023-02-13T15:57:00.565Z,99572.94
2023-02-13T15:59:37.316Z,99570.03
2023-02-13T16:02:12.243Z,99565.13
2023-02-13T16:04:42.122Z,99574.03
2023-02-13T16:07:13.979Z,99564.75
2023-02-13T16:09:41.231Z,99560.19
2023-02-13T16:12:26.834Z,99567.78
2023-02-13T16:14:59.891Z,99561.50
2023-02-13T16:17:33.216Z,99563.72
2023-02-13T16:20:11.239Z,99569.41
2023-02-13T16:22:49.729Z,99570.78
2023-02-13T16:25:38.228Z,99570.28
2023-02-13T16:28:27.155Z,99569.38
2023-02-13T16:31:04.971Z,99578.59
2023-02-13T16:33:34.588Z,99588.59
2023-02-13T16:36:27.022Z,99584.75
2023-02-13T16:38:53.969Z,99591.97
2023-02-13T16:41:26.096Z,99588.09
2023-02-13T16:44:02.572Z,99592.94
2023-02-13T16:46:39.663Z,99589.13
2023-02-13T16:49:20.831Z,99595.72
2023-02-13T16:51:59.813Z,99598.00
2023-02-13T16:54:49.040Z,99599.22
2023-02-13T16:57:18.690Z,99602.06
2023-02-13T16:59:51.263Z,99599.53
2023-02-13T17:02:32.223Z,99604.97
2023-02-13T17:05:08.004Z,99604.50
2023-02-13T17:07:40.249Z,99608.34
2023-02-13T17:10:33.574Z,99620.16
2023-02-13T17:13:13.366Z,99618.03
2023-02-13T17:15:46.533Z,99622.00
2023-02-13T17:18:13.518Z,99623.25
2023-02-13T17:20:45.150Z,99612.50
2023-02-13T17:23:20.048Z,99617.28
2023-02-13T17:25:47.969Z,99623.66
2023-02-13T17:28:25.498Z,99617.97
2023-02-13T17:30:56.568Z,99630.31
2023-02-13T17:33:34.763Z,99622.03
2023-02-13T17:36:01.487Z,99615.47
2023-02-13T17:38:28.201Z,99617.44
2023-02-13T17:40:55.107Z,99612.63
2023-02-13T17:43:21.897Z,99622.44
2023-02-13T17:45:49.877Z,99609.81
2023-02-13T17:48:17.284Z,99622.91
2023-02-13T17:50:44.665Z,99629.97
2023-02-13T17:53:31.267Z,99631.13
2023-02-13T17:55:58.787Z,99633.84
2023-02-13T17:58:25.710Z,99638.34
2023-02-13T18:00:52.507Z,99641.06
2023-02-13T18:03:19.267Z,99637.84
2023-02-13T18:05:48.892Z,99634.63
2023-02-13T18:08:16.681Z,99639.06
2023-02-13T18:10:43.436Z,99648.66
2023-02-13T18:13:10.217Z,99642.78
2023-02-13T18:15:43.230Z,99642.13
2023-02-13T18:18:12.502Z,99637.22
2023-02-13T18:20:39.321Z,99650.16
2023-02-13T18:23:07.039Z,99652.03
2023-02-13T18:25:34.356Z,99652.13
2023-02-13T18:28:01.260Z,99653.16
2023-02-13T18:30:28.138Z,99641.28
2023-02-13T18:32:58.071Z,99650.00
2023-02-13T18:35:24.891Z,99650.94
2023-02-13T18:37:51.658Z,99648.50
2023-02-13T18:40:18.596Z,99645.19
2023-02-13T18:42:45.420Z,99649.63
2023-02-13T18:45:12.420Z,99643.75
2023-02-13T18:47:39.260Z,99652.47
2023-02-13T18:50:07.249Z,99656.94
2023-02-13T18:52:35.114Z,99646.81
2023-02-13T18:55:02.200Z,99651.22
2023-02-13T18:57:29.042Z,99653.00
2023-02-13T18:59:55.874Z,99653.00
2023-02-13T19:02:23.345Z,99654.81
2023-02-13T19:04:50.241Z,99648.06
2023-02-13T19:07:17.004Z,99654.19
2023-02-13T19:09:44.340Z,99651.72
2023-02-13T19:12:11.164Z,99650.91
2023-02-13T19:14:39.257Z,99659.53
2023-02-13T19:17:08.062Z,99653.66
2023-02-13T19:19:34.829Z,99664.81
2023-02-13T19:22:02.335Z,99663.16
2023-02-13T19:24:29.268Z,99668.38
2023-02-13T19:26:56.155Z,99655.56
2023-02-13T19:29:22.982Z,99670.94
2023-02-13T19:31:49.776Z,99660.69
2023-02-13T19:34:16.647Z,99669.25
2023-02-13T19:36:43.660Z,99666.69
2023-02-13T19:39:10.815Z,99674.31
2023-02-13T19:41:39.650Z,99681.19
2023-02-13T19:44:08.265Z,99682.94
2023-02-13T19:46:35.156Z,99677.81
2023-02-13T19:49:03.014Z,99677.00
2023-02-13T19:51:32.765Z,99686.47
2023-02-13T19:54:07.099Z,99684.84
2023-02-13T19:56:37.666Z,99673.75
2023-02-13T19:59:06.990Z,99685.75
2023-02-13T20:01:34.112Z,99679.03
2023-02-13T20:04:00.988Z,99673.13
2023-02-13T20:06:33.344Z,99671.50
2023-02-13T20:09:04.907Z,99662.22
2023-02-13T20:11:31.686Z,99663.16
2023-02-13T20:14:05.143Z,99665.81
2023-02-13T20:16:36.725Z,99665.03
2023-02-13T20:19:09.481Z,99670.25
2023-02-13T20:21:37.035Z,99672.88
2023-02-13T20:24:04.831Z,99671.19
2023-02-13T20:26:32.278Z,99670.34
2023-02-13T20:28:59.691Z,99669.47
2023-02-13T20:31:29.146Z,99661.78
2023-02-13T20:33:56.923Z,99662.69
2023-02-13T20:36:28.482Z,99672.97
2023-02-13T20:38:59.490Z,99661.91
2023-02-13T20:41:30.449Z,99659.38
2023-02-13T20:44:00.578Z,99656.94
2023-02-13T20:46:31.314Z,99645.84
2023-02-13T20:48:58.205Z,99653.56
2023-02-13T20:51:24.937Z,99654.44
2023-02-13T20:53:51.779Z,99651.09
2023-02-13T20:56:24.696Z,99655.38
2023-02-13T20:58:54.951Z,99657.94
2023-02-13T21:01:32.469Z,99672.50
2023-02-13T21:03:59.759Z,99678.56
2023-02-13T21:06:34.015Z,99672.63
2023-02-13T21:09:02.440Z,99669.31
2023-02-13T21:11:29.396Z,99662.53
2023-02-13T21:13:57.856Z,99656.56
2023-02-13T21:16:34.459Z,99664.22
2023-02-13T21:19:06.767Z,99659.09
2023-02-13T21:21:37.081Z,99645.44
2023-02-13T21:24:08.719Z,99648.78
2023-02-13T21:26:36.337Z,99650.47
2023-02-13T21:29:04.008Z,99649.63
2023-02-13T21:31:35.455Z,99655.59
2023-02-13T21:34:06.007Z,99653.00
2023-02-13T21:36:34.927Z,99649.59
2023-02-13T21:39:02.636Z,99635.06
2023-02-13T21:41:29.356Z,99633.38
2023-02-13T21:43:56.160Z,99636.78
2023-02-13T21:46:27.056Z,99635.06
2023-02-13T21:49:06.209Z,99629.06
2023-02-13T21:51:36.058Z,99627.31
2023-02-13T21:54:04.919Z,99635.78
2023-02-13T21:56:39.010Z,99636.59
2023-02-13T21:59:06.218Z,99638.31
2023-02-13T22:01:36.635Z,99636.56
2023-02-13T22:04:09.717Z,99633.94
2023-02-13T22:06:39.411Z,99630.50
2023-02-13T22:09:10.385Z,99634.75
2023-02-13T22:11:38.503Z,99635.59
2023-02-13T22:14:08.410Z,99631.25
2023-02-13T22:16:37.687Z,99635.50
2023-02-13T22:19:06.531Z,99631.19
2023-02-13T22:21:36.120Z,99630.28
2023-02-13T22:24:03.599Z,99629.41
2023-02-13T22:26:33.729Z,99631.03
2023-02-13T22:29:04.892Z,99640.44
2023-02-13T22:31:31.989Z,99642.97
2023-02-13T22:34:04.255Z,99646.41
2023-02-13T22:36:35.340Z,99638.66
2023-02-13T22:39:02.261Z,99643.75
2023-02-13T22:41:29.139Z,99650.50
2023-02-13T22:43:56.941Z,99647.09
2023-02-13T22:46:32.647Z,99641.06
2023-02-13T22:49:00.240Z,99643.59
2023-02-13T22:51:33.347Z,99640.13
2023-02-13T22:54:00.479Z,99644.38
2023-02-13T22:56:29.986Z,99643.53
2023-02-13T22:58:58.041Z,99637.53
2023-02-13T23:01:27.322Z,99628.94
2023-02-13T23:03:55.512Z,99632.38
2023-02-13T23:06:23.537Z,99637.44
2023-02-13T23:08:52.470Z,99639.16
2023-02-13T23:11:41.453Z,99633.13
2023-02-13T23:14:09.863Z,99635.66
2023-02-13T23:17:01.021Z,99630.47
2023-02-13T23:19:29.676Z,99622.75
2023-02-13T23:21:56.693Z,99627.00
2023-02-13T23:24:23.893Z,99625.28
2023-02-13T23:26:50.608Z,99617.53
2023-02-13T23:29:17.394Z,99626.97
2023-02-13T23:31:44.199Z,99618.38
2023-02-13T23:34:11.285Z,99629.44
2023-02-13T23:36:38.028Z,99626.78
2023-02-13T23:39:04.739Z,99616.47
2023-02-13T23:41:31.439Z,99622.50
2023-02-13T23:43:58.146Z,99631.91
2023-02-13T23:46:24.888Z,99632.75
2023-02-13T23:48:51.658Z,99624.19
2023-02-13T23:51:18.421Z,99635.31
2023-02-13T23:53:45.347Z,99631.88
2023-02-13T23:56:12.054Z,99620.75
2023-02-13T23:58:38.764Z,99622.44
